Latest Coastal Weather Observations for Montague Island

IDN60701

Issued at 11:02 am EDT Friday 6 March 2015 (issued every 10 minutes, with the page automatically refreshed every 10 minutes)

About coastal observations | Map of coastal stations | Coastal observations for NSW | Marine services | Other Formats
Station Details ID: 069017 Name: MONTAGUE ISLAND LIGHTHOUSE Lat: -36.25 Lon: 150.23 Height: 52.0 m
Data from the previous 72 hours. | See also: Recent months at Montague Island
Date/Time
EDT
Temp

°C
Wind Pressure Rain
since 9am
mm
Weather Cloud Vis
km
Sea
Height
m
Swell
Dir
 
Speed
knots
Gust
knots
hPa Trend Height
m
Period
s
Dir
06/11:00am 21.4 NNW 4 8 1004.2 - 0.0 - - - - - - -
06/10:30am 21.2 NNW 4 8 1004.4 - 0.0 - - - - - - -
06/10:00am 20.7 NNW 4 7 1004.4 - 0.0 - - - - - - -
06/09:30am 20.1 NNW 6 9 1004.1 - 0.0 - - - - - - -
06/09:00am 19.8 NW 5 7 1004.3 - 0.0 - - - - - - -
06/08:30am 18.8 WNW 3 5 1004.3 - 0.0 - - - - - - -
06/08:00am 17.4 WNW 3 5 1004.2 - 0.0 - - - - - - -
06/07:30am 16.8 WNW 6 7 1004.3 - 0.0 - - - - - - -
06/07:00am 16.7 WNW 8 9 1004.4 - 0.0 - - - - - - -
06/06:30am 17.2 WNW 8 11 1004.0 - 0.0 - - - - - - -
06/06:00am 17.2 NW 9 12 1004.1 - 0.0 - - - - - - -
06/05:30am 16.4 NW 8 11 1004.6 - 0.0 - - - - - - -
06/05:00am 16.6 NW 9 11 1005.0 - 0.0 - - - - - - -
06/04:30am 16.9 NW 8 11 1005.4 - 0.0 - - - - - - -
06/04:00am 17.6 NNW 12 15 1005.8 - 0.0 - - - - - - -
06/03:30am 18.0 NNW 15 19 1006.2 - 0.0 - - - - - - -
06/03:00am 17.9 NNW 17 22 1006.8 - 0.0 - - - - - - -
06/02:30am 18.0 NNW 19 24 1007.3 - 0.0 - - - - - - -
06/02:00am 18.2 NNW 17 24 1007.8 - 0.0 - - - - - - -
06/01:30am 18.1 NNW 16 21 1008.4 - 0.0 - - - - - - -
06/01:29am 18.2 NNW 15 21 1008.4 - 0.0 - - - - - - -
06/01:00am 17.0 N 8 11 1009.0 - 0.0 - - - - - - -
06/12:30am 16.5 W 5 8 1009.6 - 0.0 - - - - - - -
06/12:00am 16.8 W 7 10 1009.9 - 0.0 - - - - - - -
 
Date/Time
EDT
Temp

°C
Wind Pressure Rain
since 9am
mm
Weather Cloud Vis
km
Sea
Height
m
Swell
Dir
 
Speed
knots
Gust
knots
hPa Trend Height
m
Period
s
Dir
05/11:30pm 17.6 SW 13 16 1010.2 - 0.0 - - - - - - -
05/11:00pm 17.9 SSW 16 20 1010.2 - 0.0 - - - - - - -
05/10:30pm 18.1 SSW 14 19 1010.8 - 0.0 - - - - - - -
05/10:00pm 18.4 SSW 19 23 1011.0 - 0.0 - - - - - - -
05/09:30pm 18.6 SSW 22 26 1010.7 - 0.0 - - - - - - -
05/09:00pm 18.7 SSW 19 25 1010.5 - 0.0 - - - - - - -
05/08:30pm 18.9 SSW 18 23 1010.3 - 0.0 - - - - - - -
05/08:00pm 19.0 SSW 19 23 1010.1 - 0.0 - - - - - - -
05/07:30pm 19.3 SSW 19 27 1010.2 - 0.0 - - - - - - -
05/07:00pm 19.6 SSW 21 26 1010.3 - 0.0 - - - - - - -
05/06:30pm 19.9 SSW 24 31 1009.9 - 0.0 - - - - - - -
05/06:00pm 20.3 SSW 26 32 1009.6 - 0.0 - - - - - - -
05/05:30pm 20.5 SSW 25 30 1009.5 - 0.0 - - - - - - -
05/05:00pm 20.8 SSW 24 31 1009.3 - 0.0 - - - - - - -
05/04:32pm 21.2 SSW 21 31 1009.3 - 0.0 - - - - - - -
05/04:30pm 21.2 SSW 22 30 1009.2 - 0.0 - - - - - - -
05/04:00pm 21.1 SSW 23 30 1009.0 - 0.0 - - - - - - -
05/03:56pm 21.3 SSW 23 34 1009.1 - 0.0 - - - - - - -
05/03:30pm 21.2 SW 24 31 1009.2 - 0.0 - - - - - - -
05/03:00pm 21.5 SW 26 33 1009.3 - 0.0 - - - - - - -
05/02:30pm 21.7 SW 28 35 1009.4 - 0.0 - - - - - - -
05/02:22pm 21.5 SW 23 34 1009.5 - 0.0 - - - - - - -
05/02:00pm 21.1 SW 30 38 1009.5 - 0.0 - - - - - - -
05/01:30pm 21.3 SW 30 38 1009.3 - 0.0 - - - - - - -
05/01:09pm 21.0 SW 31 43 1009.2 - 0.0 - - - - - - -
05/01:00pm 20.9 SW 30 39 1009.1 - 0.0 - - - - - - -
05/12:33pm 20.9 SW 33 45 1009.2 - 0.0 - - - - - - -
05/12:30pm 20.5 SW 34 45 1009.1 - 0.0 - - - - - - -
05/12:14pm 21.0 SW 24 35 1009.3 - 0.0 - - - - - - -
05/12:00pm 20.4 SSW 24 29 1009.3 - 0.0 - - - - - - -
05/11:47am 20.1 SSW 28 36 1009.2 - 0.0 - - - - - - -
05/11:30am 19.7 SW 35 45 1008.6 - 0.0 - - - - - - -
05/11:02am 19.5 SW 36 46 1007.9 - 0.0 - - - - - - -
05/11:00am 19.6 SW 37 46 1007.8 - 0.0 - - - - - - -
05/10:32am 18.9 SW 40 51 1006.5 - 0.0 - - - - - - -
05/10:30am 19.0 SW 40 49 1006.6 - 0.0 - - - - - - -
05/10:25am 19.0 SW 39 49 1006.6 - 0.0 - - - - - - -
05/10:00am 18.5 SW 34 42 1006.3 - 0.0 - - - - - - -
05/09:31am 18.9 SSW 33 44 1005.9 - 0.0 - - - - - - -
05/09:30am 19.1 SSW 34 44 1005.9 - 0.0 - - - - - - -
05/09:01am 19.1 S 24 42 1005.3 - 0.0 - - - - - - -
05/09:00am 19.6 S 22 41 1005.6 - 0.0 - - - - - - -
05/08:58am 20.3 S 20 31 1005.9 - 0.0 - - - - - - -
05/08:50am 19.9 SSW 18 26 1005.6 - 0.0 - - - - - - -
05/08:30am 19.8 SW 16 19 1005.0 - 0.0 - - - - - - -
05/08:00am 19.6 SSW 15 21 1004.6 - 0.0 - - - - - - -
05/07:57am 19.6 SSW 16 26 1004.5 - 0.0 - - - - - - -
05/07:30am 19.7 SSW 21 27 1004.0 - 0.0 - - - - - - -
05/07:00am 18.9 SSW 18 23 1003.6 - 0.0 - - - - - - -
05/06:30am 19.1 SSW 17 22 1003.1 - 0.0 - - - - - - -
05/06:23am 19.2 SSW 15 21 1003.0 - 0.0 - - - - - - -
05/06:00am 19.1 SSW 7 10 1002.7 - 0.0 - - - - - - -
05/05:30am 18.9 SSW 6 8 1002.4 - 0.0 - - - - - - -
05/05:00am 19.2 SSW 5 8 1002.6 - 0.0 - - - - - - -
05/04:30am 19.1 W 3 6 1002.4 - 0.0 - - - - - - -
05/04:00am 19.0 W 6 9 1002.7 - 0.0 - - - - - - -
05/03:30am 19.0 SW 7 10 1003.2 - 0.0 - - - - - - -
05/03:00am 19.4 SW 11 13 1003.7 - 0.0 - - - - - - -
05/02:30am 19.5 SW 9 11 1004.0 - 0.0 - - - - - - -
05/02:00am 19.6 SSW 9 12 1004.5 - 0.0 - - - - - - -
05/01:30am 19.8 SSW 13 15 1005.2 - 0.0 - - - - - - -
05/01:00am 20.1 SSW 13 17 1005.8 - 0.0 - - - - - - -
05/12:30am 20.3 SSW 12 14 1006.2 - 0.0 - - - - - - -
05/12:00am 20.9 SSW 12 14 1006.8 - 0.0 - - - - - - -
 
Date/Time
EDT
Temp

°C
Wind Pressure Rain
since 9am
mm
Weather Cloud Vis
km
Sea
Height
m
Swell
Dir
 
Speed
knots
Gust
knots
hPa Trend Height
m
Period
s
Dir
04/11:30pm 21.6 SSW 7 9 1007.3 - 0.0 - - - - - - -
04/11:00pm 21.8 SW 7 9 1007.6 - 0.0 - - - - - - -
04/10:30pm 21.9 WSW 5 6 1008.0 - 0.0 - - - - - - -
04/10:00pm 22.3 SW 3 4 1008.5 - 0.0 - - - - - - -
04/09:30pm 22.2 SSW 2 2 1008.6 - 0.0 - - - - - - -
04/09:00pm 22.1 SSE 2 3 1008.6 - 0.0 - - - - - - -
04/08:30pm 22.3 SSW 2 3 1008.5 - 0.0 - - - - - - -
04/08:00pm 22.4 S 2 3 1008.4 - 0.0 - - - - - - -
04/07:30pm 22.5 SSW 3 4 1008.3 - 0.0 - - - - - - -
04/07:00pm 22.5 SSE 2 3 1008.6 - 0.0 - - - - - - -
04/06:30pm 22.4 E 3 4 1008.5 - 0.0 - - - - - - -
04/06:00pm 22.6 ESE 4 6 1008.6 - 0.0 - - - - - - -
04/05:30pm 22.6 E 5 6 1008.5 - 0.0 - - - - - - -
04/05:00pm 22.7 E 5 7 1008.8 - 0.0 - - - - - - -
04/04:30pm 23.1 E 6 7 1008.7 - 0.0 - - - - - - -
04/04:00pm 22.9 E 6 7 1009.0 - 0.0 - - - - - - -
04/03:30pm 23.0 E 7 9 1009.3 - 0.0 - - - - - - -
04/03:00pm 23.1 E 8 10 1009.6 - 0.0 - - - - - - -
04/02:30pm 22.6 E 8 10 1010.2 - 0.0 - - - - - - -
04/02:00pm 22.2 ESE 9 11 1010.8 - 0.0 - - - - - - -
04/01:30pm 22.4 ESE 9 10 1011.3 - 0.0 - - - - - - -
04/01:00pm 22.5 ESE 8 10 1011.5 - 0.0 - - - - - - -
04/12:30pm 21.5 SSE 8 10 1012.1 - 0.0 - - - - - - -
04/12:00pm 22.4 SSE 9 11 1012.7 - 0.0 - - - - - - -
04/11:30am 22.3 SSE 8 10 1013.2 - 0.0 - - - - - - -
04/11:00am 21.9 S 9 12 1013.5 - 0.0 - - - - - - -
04/10:30am 21.3 SSW 8 10 1013.7 - 0.0 - - - - - - -
04/10:00am 20.8 SSW 8 10 1013.7 - 0.0 - - - - - - -
04/09:30am 20.5 SSW 8 10 1013.9 - 0.0 - - - - - - -
04/09:00am 20.1 SSW 6 7 1013.8 - 0.0 - - - - - - -
04/08:30am 20.0 SW 6 8 1013.6 - 0.0 - - - - - - -
04/08:00am 19.9 SW 6 7 1013.3 - 0.0 - - - - - - -
04/07:30am 19.7 SW 5 6 1013.0 - 0.0 - - - - - - -
04/07:00am 19.6 SW 5 7 1012.7 - 0.0 - - - - - - -
04/06:30am 19.6 SSW 4 5 1012.4 - 0.0 - - - - - - -
04/06:00am 19.5 S 4 5 1012.4 - 0.0 - - - - - - -
04/05:30am 19.6 SW 4 6 1012.6 - 0.0 - - - - - - -
04/05:00am 19.6 SW 4 5 1012.7 - 0.0 - - - - - - -
04/04:30am 19.5 WSW 5 6 1012.9 - 0.0 - - - - - - -
04/04:00am 19.5 WSW 5 6 1013.0 - 0.0 - - - - - - -
04/03:30am 19.5 SW 6 7 1013.2 - 0.0 - - - - - - -
04/03:00am 19.4 SW 9 10 1013.5 - 0.0 - - - - - - -
04/02:30am 19.5 SW 9 10 1013.7 - 0.0 - - - - - - -
04/02:00am 19.6 SW 8 10 1014.3 - 0.0 - - - - - - -
04/01:30am 19.6 SW 9 12 1014.6 - 0.0 - - - - - - -
04/01:00am 19.6 SW 11 13 1014.8 - 0.0 - - - - - - -
04/12:30am 19.6 SW 10 13 1014.9 - 0.0 - - - - - - -
04/12:00am 19.7 SW 12 13 1015.1 - 0.0 - - - - - - -
 
Date/Time
EDT
Temp

°C
Wind Pressure Rain
since 9am
mm
Weather Cloud Vis
km
Sea
Height
m
Swell
Dir
 
Speed
knots
Gust
knots
hPa Trend Height
m
Period
s
Dir
03/11:30pm 19.8 SW 10 12 1015.4 - 0.0 - - - - - - -
03/11:00pm 20.0 SW 10 12 1015.6 - 0.0 - - - - - - -
03/10:30pm 20.5 S 7 9 1015.5 - 0.0 - - - - - - -
03/10:00pm 20.7 S 8 9 1015.7 - 0.0 - - - - - - -
03/09:30pm 20.7 SSE 8 9 1015.8 - 0.0 - - - - - - -
03/09:00pm 20.6 SSE 9 11 1015.7 - 0.0 - - - - - - -
03/08:30pm 20.7 SSE 12 14 1015.3 - 0.0 - - - - - - -
03/08:00pm 20.5 SSE 13 14 1014.9 - 0.0 - - - - - - -
03/07:30pm 20.5 SSE 14 17 1014.7 - 0.0 - - - - - - -
03/07:00pm 20.5 SE 14 17 1014.7 - 0.0 - - - - - - -
03/06:30pm 20.7 SSE 16 19 1014.6 - 0.0 - - - - - - -
03/06:00pm 21.1 SSE 16 18 1014.4 - 0.0 - - - - - - -
03/05:30pm 21.3 SSE 15 18 1014.3 - 0.0 - - - - - - -
03/05:00pm 21.8 SE 14 17 1014.1 - 0.0 - - - - - - -
03/04:30pm 21.7 SSE 16 18 1014.0 - 0.0 - - - - - - -
03/04:00pm 21.8 SSE 15 17 1014.2 - 0.0 - - - - - - -
03/03:30pm 22.4 SSE 14 16 1014.3 - 0.0 - - - - - - -
03/03:00pm 22.7 SSE 13 17 1014.7 - 0.0 - - - - - - -
03/02:30pm 22.4 SSE 13 16 1015.0 - 0.0 - - - - - - -
03/02:00pm 21.8 S 13 17 1014.8 - 0.0 - - - - - - -
03/01:30pm 22.3 S 14 17 1015.1 - 0.0 - - - - - - -
03/01:00pm 22.9 S 14 18 1015.1 - 0.0 - - - - - - -
03/12:30pm 22.6 S 14 17 1015.4 - 0.0 - - - - - - -
03/12:00pm 22.1 S 12 15 1015.4 - 0.0 - - - - - - -
03/11:30am 22.0 SSW 9 14 1015.9 - 0.0 - - - - - - -

Other Formats:

Comma delimited format used in spreadsheet applications
http://www.bom.gov.au/fwo/IDN60701/IDN60701.94939.axf

JavaScript Object Notation format (JSON) in row-major order
http://www.bom.gov.au/fwo/IDN60701/IDN60701.94939.json